Rockfall, Connecticut
Current Conditions -  °F | °C
As of 5:53 PM on Wednesday 22 Oct 2014 (Local Time) from KMMK Reporting Station
Light Rain Light Rain  
Wind Chill: 11°   Ceiling: 1300
Heat Index: 11°   Visibility: 5mi
Dew Point:   Wind: 13mph
Humidity: 89%   Direction: 10°N
Pressure: 29.83"   Gusts: 24mph
Location:  41.53°N, 72.7°W
Report Text: KMMK 222153Z AUTO 01011G21KT 330V040 5SM -RA BR BKN013 OVC019 11/09 A2983 RMK AO2 RAE06B30 SLP101 P0001 T01060089 TSNO
Loading
Personal Weather Stations






























Interactive Weather Map
Tropical Storm Tracking
New forecast layout! Learn more

10-Day Weather Forecast

Advertisements
Track Severe Weather on mobile